Time;durP1;ratioP1;P1;durP2;ratioP2;P2;SDS_P1;SDS_P2;PMS_P1;PMS_P2;Temp;Humidity;BMP_temperature;BMP_pressure;BME280_temperature;BME280_humidity;BME280_pressure;Samples;Min_cycle;Max_cycle;Signal;HPM_P1;HPM_P2
2023/04/11 00:00:16;;;;;;;3.33;2.80;;;10.90;99.90;;;;;;4995746;28;20262;-82
2023/04/11 00:02:42;;;;;;;3.30;3.00;;;10.80;99.90;;;;;;4995862;28;20293;-82
2023/04/11 00:05:08;;;;;;;3.37;2.90;;;10.70;99.90;;;;;;4994949;28;20262;-82
2023/04/11 00:07:34;;;;;;;4.50;2.70;;;10.70;99.90;;;;;;4996088;28;20612;-82
2023/04/11 00:09:59;;;;;;;2.97;2.67;;;10.60;99.90;;;;;;5010717;28;20271;-82
2023/04/11 00:12:25;;;;;;;3.90;2.80;;;10.60;99.90;;;;;;4996130;28;20191;-82
2023/04/11 00:14:52;;;;;;;4.70;2.90;;;10.50;99.90;;;;;;4994749;28;20189;-82
2023/04/11 00:17:19;;;;;;;2.77;2.50;;;10.40;99.90;;;;;;4994763;28;20179;-81
2023/04/11 00:19:45;;;;;;;3.17;2.73;;;10.40;99.90;;;;;;4995771;28;20195;-82
2023/04/11 00:22:12;;;;;;;3.53;3.10;;;10.40;99.90;;;;;;4985897;28;20207;-82
2023/04/11 00:24:38;;;;;;;3.53;2.90;;;10.40;99.90;;;;;;4976318;28;20184;-82
2023/04/11 00:27:04;;;;;;;4.10;3.40;;;10.30;99.90;;;;;;4976577;28;20235;-81
2023/04/11 00:29:32;;;;;;;4.07;3.30;;;10.10;99.90;;;;;;4975903;28;20179;-80
2023/04/11 00:31:58;;;;;;;4.33;3.17;;;10.00;99.90;;;;;;4975551;28;20176;-81
2023/04/11 00:34:24;;;;;;;4.17;3.17;;;9.90;99.90;;;;;;4975028;28;20242;-82
2023/04/11 00:36:50;;;;;;;4.40;3.30;;;9.80;99.90;;;;;;4976228;28;20492;-82
2023/04/11 00:39:19;;;;;;;4.53;3.23;;;9.80;99.90;;;;;;4974113;28;20186;-82
2023/04/11 00:41:45;;;;;;;5.63;3.03;;;9.70;99.90;;;;;;4973928;28;20585;-82
2023/04/11 00:44:12;;;;;;;4.43;3.00;;;9.80;99.90;;;;;;4975957;28;20635;-82
2023/04/11 00:46:41;;;;;;;4.47;3.30;;;9.80;99.90;;;;;;4975895;28;20652;-82
2023/04/11 00:49:07;;;;;;;4.33;3.30;;;9.90;99.90;;;;;;4974852;28;20540;-82
2023/04/11 00:51:33;;;;;;;4.00;3.10;;;10.00;99.90;;;;;;4974334;28;20311;-82
2023/04/11 00:54:00;;;;;;;4.60;3.10;;;10.10;99.90;;;;;;4975842;28;20219;-82
2023/04/11 00:56:26;;;;;;;3.77;3.13;;;10.20;99.90;;;;;;4974809;28;20172;-82
2023/04/11 00:58:52;;;;;;;4.20;3.10;;;10.20;99.90;;;;;;4974457;28;20267;-81
2023/04/11 01:01:18;;;;;;;3.87;3.30;;;10.10;99.90;;;;;;4973912;28;20701;-82
2023/04/11 01:03:44;;;;;;;3.43;3.07;;;10.10;99.90;;;;;;4975972;28;20204;-82
2023/04/11 01:06:12;;;;;;;3.93;3.10;;;10.00;99.90;;;;;;4975547;28;20183;-82
2023/04/11 01:08:39;;;;;;;3.23;2.83;;;10.00;99.90;;;;;;4974390;28;20204;-83
2023/04/11 01:11:07;;;;;;;3.70;3.00;;;9.90;99.90;;;;;;4974030;28;20199;-82
2023/04/11 01:13:35;;;;;;;4.40;2.83;;;9.90;99.90;;;;;;4974765;28;20207;-82
2023/04/11 01:16:02;;;;;;;3.57;3.10;;;9.80;99.90;;;;;;4974117;28;20172;-82
2023/04/11 01:18:28;;;;;;;4.17;3.07;;;9.90;99.90;;;;;;4975421;28;20582;-82
2023/04/11 01:20:54;;;;;;;2.80;2.50;;;9.90;99.90;;;;;;4973715;28;20176;-82
2023/04/11 01:23:24;;;;;;;3.17;2.50;;;9.80;99.90;;;;;;4975273;28;20243;-82
2023/04/11 01:25:50;;;;;;;2.97;2.50;;;9.90;99.90;;;;;;4974069;28;20270;-81
2023/04/11 01:28:16;;;;;;;3.83;2.77;;;10.00;99.90;;;;;;4975077;28;20282;-82
2023/04/11 01:30:42;;;;;;;3.50;2.30;;;10.00;99.90;;;;;;4990061;28;20196;-82
2023/04/11 01:33:09;;;;;;;2.73;2.10;;;10.00;99.90;;;;;;4973879;28;20248;-82
2023/04/11 01:35:35;;;;;;;2.47;2.23;;;10.00;99.90;;;;;;4973865;28;20172;-82
2023/04/11 01:38:02;;;;;;;2.67;2.03;;;10.00;99.90;;;;;;4975027;28;20184;-82
2023/04/11 01:40:28;;;;;;;2.40;1.70;;;10.10;99.90;;;;;;4973557;28;20215;-81
2023/04/11 01:42:54;;;;;;;2.53;1.80;;;10.00;99.90;;;;;;4973648;28;20212;-82
2023/04/11 01:45:21;;;;;;;1.80;1.70;;;10.00;99.90;;;;;;4973944;28;20264;-83
2023/04/11 01:47:46;;;;;;;1.83;1.73;;;10.00;99.90;;;;;;4973742;28;20173;-82
2023/04/11 01:50:12;;;;;;;2.70;1.73;;;10.00;99.90;;;;;;4973142;28;20184;-82
2023/04/11 01:52:37;;;;;;;2.60;1.70;;;10.00;99.90;;;;;;4973124;28;20204;-82
2023/04/11 01:55:03;;;;;;;2.07;1.50;;;10.00;99.90;;;;;;4973570;28;20211;-82
2023/04/11 01:57:29;;;;;;;2.17;1.47;;;10.00;99.90;;;;;;4974599;28;20168;-81
2023/04/11 01:59:55;;;;;;;1.50;1.20;;;10.00;99.90;;;;;;4973145;28;20187;-81
2023/04/11 02:02:21;;;;;;;1.47;1.00;;;10.10;99.90;;;;;;4974398;28;20212;-82
2023/04/11 02:04:46;;;;;;;1.00;0.90;;;10.00;99.90;;;;;;4974795;28;20214;-81
2023/04/11 02:07:12;;;;;;;1.40;1.00;;;10.00;99.90;;;;;;4973318;28;20643;-82
2023/04/11 02:09:37;;;;;;;1.10;1.00;;;10.10;99.90;;;;;;4973929;28;20551;-80
2023/04/11 02:12:03;;;;;;;1.00;0.90;;;10.00;99.90;;;;;;4973205;28;20193;-82
2023/04/11 02:14:42;;;;;;;1.10;1.00;;;10.00;99.90;;;;;;4973057;28;20207;-82
2023/04/11 02:17:09;;;;;;;1.20;0.97;;;9.90;99.90;;;;;;4973202;28;20185;-82
2023/04/11 02:19:44;;;;;;;2.40;1.70;;;9.90;99.90;;;;;;4974098;28;20226;-81
2023/04/11 02:22:10;;;;;;;2.17;1.10;;;9.80;99.90;;;;;;4973416;28;20211;-82
2023/04/11 02:24:36;;;;;;;1.10;0.90;;;9.70;99.90;;;;;;4974248;28;20172;-81
2023/04/11 02:27:02;;;;;;;2.07;1.13;;;9.70;99.90;;;;;;4973970;28;20177;-82
2023/04/11 02:29:28;;;;;;;1.80;1.20;;;9.60;99.90;;;;;;4973016;28;20183;-81
2023/04/11 02:31:53;;;;;;;1.50;0.97;;;9.50;99.90;;;;;;4973572;28;20643;-82
2023/04/11 02:34:19;;;;;;;0.87;0.70;;;9.40;99.90;;;;;;4972857;28;20243;-81
2023/04/11 02:36:45;;;;;;;1.27;0.60;;;9.40;99.90;;;;;;4973095;28;20183;-82
2023/04/11 02:39:11;;;;;;;1.30;0.90;;;9.30;99.90;;;;;;4972801;28;20179;-81
2023/04/11 02:41:41;;;;;;;1.70;0.77;;;9.30;99.90;;;;;;4973274;28;20202;-81
2023/04/11 02:44:10;;;;;;;0.80;0.80;;;9.20;99.90;;;;;;4972722;28;20199;-82
2023/04/11 02:46:35;;;;;;;1.17;0.80;;;9.20;99.90;;;;;;4972655;28;20199;-82
2023/04/11 02:49:02;;;;;;;0.90;0.80;;;9.20;99.90;;;;;;4974057;28;20709;-82
2023/04/11 02:51:28;;;;;;;1.73;0.80;;;9.10;99.90;;;;;;4973394;28;20238;-81
2023/04/11 02:53:54;;;;;;;1.50;0.80;;;9.00;99.90;;;;;;4973970;28;20199;-81
2023/04/11 02:56:20;;;;;;;1.07;0.87;;;8.90;99.90;;;;;;4972777;28;20238;-82
2023/04/11 02:58:46;;;;;;;0.60;0.60;;;8.80;99.90;;;;;;4973838;28;20218;-82
2023/04/11 03:01:13;;;;;;;1.90;0.70;;;8.70;99.90;;;;;;4973203;28;20261;-81
2023/04/11 03:03:39;;;;;;;0.93;0.60;;;8.60;99.90;;;;;;4972947;28;20565;-82
2023/04/11 03:06:06;;;;;;;1.07;0.83;;;8.40;99.90;;;;;;4972491;28;20174;-82
2023/04/11 03:08:32;;;;;;;0.90;0.90;;;8.40;99.90;;;;;;4972338;28;20236;-82
2023/04/11 03:10:57;;;;;;;1.37;0.73;;;8.40;99.90;;;;;;4973063;28;20184;-82
2023/04/11 03:13:24;;;;;;;0.87;0.80;;;8.40;99.90;;;;;;4973612;28;20205;-82
2023/04/11 03:15:50;;;;;;;1.47;0.80;;;8.40;99.90;;;;;;4972295;28;20609;-82
2023/04/11 03:18:16;;;;;;;0.73;0.63;;;8.30;99.90;;;;;;4973501;28;20254;-82
2023/04/11 03:20:42;;;;;;;1.73;1.03;;;8.30;99.90;;;;;;4972958;28;20530;-82
2023/04/11 03:23:08;;;;;;;1.37;0.90;;;8.30;99.90;;;;;;4972501;28;20699;-82
2023/04/11 03:25:36;;;;;;;2.87;0.90;;;8.30;99.90;;;;;;4973784;28;20179;-82
2023/04/11 03:28:02;;;;;;;1.57;0.80;;;8.20;99.90;;;;;;4973559;28;20183;-82
2023/04/11 03:30:28;;;;;;;1.63;0.70;;;8.20;99.90;;;;;;4973030;28;20177;-81
2023/04/11 03:32:53;;;;;;;0.70;0.60;;;8.20;99.90;;;;;;4972149;28;20302;-82
2023/04/11 03:35:19;;;;;;;1.30;0.90;;;8.10;99.90;;;;;;4973320;28;20196;-82
2023/04/11 03:37:45;;;;;;;1.73;0.70;;;8.10;99.90;;;;;;4973338;28;20224;-82
2023/04/11 03:40:11;;;;;;;1.13;0.60;;;8.20;99.90;;;;;;4971629;28;20221;-82
2023/04/11 03:42:37;;;;;;;0.90;0.80;;;8.20;99.90;;;;;;4973257;28;20220;-81
2023/04/11 03:45:03;;;;;;;0.73;0.73;;;8.20;99.90;;;;;;4973430;28;20199;-82
2023/04/11 03:47:29;;;;;;;1.33;1.10;;;8.20;99.90;;;;;;4972172;28;20174;-81
2023/04/11 03:49:55;;;;;;;1.03;0.93;;;8.30;99.90;;;;;;4972669;28;20181;-82
2023/04/11 03:52:21;;;;;;;1.70;0.90;;;8.30;99.90;;;;;;4972334;28;20260;-82
2023/04/11 03:54:46;;;;;;;1.63;1.20;;;8.30;99.90;;;;;;4973625;28;20552;-82
2023/04/11 03:57:12;;;;;;;1.27;0.83;;;8.30;99.90;;;;;;4972174;28;20647;-81
2023/04/11 03:59:38;;;;;;;1.13;0.80;;;8.30;99.90;;;;;;4972882;28;20258;-81
2023/04/11 04:02:03;;;;;;;3.40;0.90;;;8.20;99.90;;;;;;4973134;28;20210;-82
2023/04/11 04:04:31;;;;;;;1.00;0.80;;;8.30;99.90;;;;;;4973270;28;20177;-82
2023/04/11 04:06:56;;;;;;;1.77;0.97;;;8.30;99.90;;;;;;4972002;28;20181;-82
2023/04/11 04:09:22;;;;;;;1.83;0.90;;;8.30;99.90;;;;;;4973221;28;20176;-81
2023/04/11 04:11:48;;;;;;;0.83;0.77;;;8.30;99.90;;;;;;4972584;28;20256;-81
2023/04/11 04:14:15;;;;;;;2.47;0.80;;;8.20;99.90;;;;;;4974153;28;20624;-82
2023/04/11 04:16:40;;;;;;;1.17;0.80;;;8.10;99.90;;;;;;4978087;28;20183;-82
2023/04/11 04:19:06;;;;;;;1.93;1.00;;;8.10;99.90;;;;;;4987731;28;20186;-82
2023/04/11 04:21:32;;;;;;;1.10;0.80;;;8.10;99.90;;;;;;4976515;28;20231;-81
2023/04/11 04:24:02;;;;;;;1.17;1.07;;;8.10;99.90;;;;;;4976848;28;20193;-81
2023/04/11 04:26:31;;;;;;;1.17;0.93;;;8.10;99.90;;;;;;4974314;28;20269;-81
2023/04/11 04:29:03;;;;;;;1.47;1.07;;;8.10;99.90;;;;;;4976782;28;20174;-82
2023/04/11 04:31:32;;;;;;;2.43;0.90;;;8.10;99.90;;;;;;4976590;28;20174;-81
2023/04/11 04:34:08;;;;;;;1.10;0.87;;;8.10;99.90;;;;;;5065847;23;20219;-83
2023/04/11 04:36:45;;;;;;;1.30;1.00;;;8.10;99.90;;;;;;5045657;28;20265;-82
2023/04/11 04:39:18;;;;;;;1.17;0.90;;;8.10;99.90;;;;;;5010290;28;20174;-82
2023/04/11 04:41:48;;;;;;;2.43;1.10;;;8.10;99.90;;;;;;5021060;28;20205;-81
2023/04/11 04:44:16;;;;;;;1.00;0.90;;;8.10;99.90;;;;;;5016572;28;20241;-82
2023/04/11 04:46:43;;;;;;;2.40;1.17;;;8.10;99.90;;;;;;4998779;28;20172;-81
2023/04/11 04:49:09;;;;;;;2.33;1.33;;;8.10;99.90;;;;;;5021305;28;20181;-81
2023/04/11 04:51:36;;;;;;;4.03;1.50;;;8.10;99.90;;;;;;5005570;28;20174;-83
2023/04/11 04:54:03;;;;;;;3.40;1.30;;;8.00;99.90;;;;;;5019874;28;20235;-83
2023/04/11 04:56:29;;;;;;;1.37;1.13;;;8.00;99.90;;;;;;5020143;28;20179;-83
2023/04/11 04:58:56;;;;;;;1.60;1.40;;;8.00;99.90;;;;;;5026168;28;20172;-83
2023/04/11 05:01:25;;;;;;;1.90;1.70;;;8.00;99.90;;;;;;5021577;28;20186;-84
2023/04/11 05:03:57;;;;;;;3.83;1.80;;;8.00;99.90;;;;;;5017720;28;20187;-83
2023/04/11 05:06:30;;;;;;;2.07;1.40;;;8.00;99.90;;;;;;5033481;28;20171;-83
2023/04/11 05:08:58;;;;;;;1.17;1.07;;;8.00;99.90;;;;;;5028438;28;20591;-83
2023/04/11 05:11:24;;;;;;;2.03;1.03;;;8.00;99.90;;;;;;5016419;28;20270;-83
2023/04/11 05:13:50;;;;;;;1.60;1.10;;;8.00;99.90;;;;;;5016745;28;20196;-83
2023/04/11 05:16:17;;;;;;;1.07;1.00;;;8.00;99.90;;;;;;5017939;28;20168;-84
2023/04/11 05:18:43;;;;;;;1.57;1.20;;;8.00;99.90;;;;;;5018893;28;20168;-84
2023/04/11 05:21:08;;;;;;;2.23;1.30;;;8.00;99.90;;;;;;5016935;28;20176;-83
2023/04/11 05:23:34;;;;;;;1.90;1.20;;;8.00;99.90;;;;;;5018592;28;20202;-83
2023/04/11 05:26:00;;;;;;;2.53;1.30;;;8.00;99.90;;;;;;5017089;28;20171;-83
2023/04/11 05:28:25;;;;;;;2.33;1.20;;;8.00;99.90;;;;;;5019464;28;20177;-83
2023/04/11 05:30:51;;;;;;;2.97;1.10;;;8.00;99.90;;;;;;5018367;28;20658;-83
2023/04/11 05:33:17;;;;;;;1.97;1.20;;;8.10;99.90;;;;;;5018724;28;20277;-84
2023/04/11 05:35:42;;;;;;;4.07;1.37;;;8.10;99.90;;;;;;5016764;28;20185;-83
2023/04/11 05:38:08;;;;;;;2.73;1.37;;;8.20;99.90;;;;;;5015348;28;20182;-82
2023/04/11 05:40:35;;;;;;;2.27;1.50;;;8.20;99.90;;;;;;5014880;28;20179;-81
2023/04/11 05:43:01;;;;;;;2.60;1.23;;;8.10;99.90;;;;;;5016554;28;20246;-82
2023/04/11 05:45:27;;;;;;;3.00;1.00;;;8.10;99.90;;;;;;5017040;28;20172;-81
2023/04/11 05:47:52;;;;;;;2.03;1.23;;;8.10;99.90;;;;;;5016903;28;20175;-82
2023/04/11 05:50:18;;;;;;;2.00;1.40;;;8.10;99.90;;;;;;5016501;28;20267;-84
2023/04/11 05:52:43;;;;;;;1.70;1.33;;;8.20;99.90;;;;;;5016644;28;20203;-84
2023/04/11 05:55:09;;;;;;;1.77;1.20;;;8.10;99.90;;;;;;5018154;28;20181;-82
2023/04/11 05:57:35;;;;;;;2.43;1.37;;;8.00;99.90;;;;;;5017937;28;20232;-81
2023/04/11 06:00:01;;;;;;;3.93;1.40;;;8.00;99.90;;;;;;5014977;28;20180;-82
2023/04/11 06:02:27;;;;;;;1.60;1.47;;;7.90;99.90;;;;;;5013092;28;20280;-82
2023/04/11 06:04:53;;;;;;;2.63;1.57;;;7.90;99.90;;;;;;5037147;28;20181;-83
2023/04/11 06:07:20;;;;;;;2.17;1.60;;;7.90;99.90;;;;;;5005664;28;20179;-83
2023/04/11 06:09:45;;;;;;;3.10;1.50;;;8.00;99.90;;;;;;5033330;28;20236;-83
2023/04/11 06:12:11;;;;;;;2.00;1.40;;;8.10;99.90;;;;;;5041323;28;20178;-82
2023/04/11 06:14:37;;;;;;;2.33;1.47;;;8.30;99.90;;;;;;5012279;28;20179;-83
2023/04/11 06:17:03;;;;;;;2.17;1.63;;;8.40;99.90;;;;;;5013885;28;20183;-84
2023/04/11 06:19:29;;;;;;;2.67;1.50;;;8.40;99.90;;;;;;5014102;28;20195;-83
2023/04/11 06:21:54;;;;;;;2.60;1.60;;;8.40;99.90;;;;;;5021337;28;20225;-83
2023/04/11 06:24:37;;;;;;;2.73;1.50;;;8.40;99.90;;;;;;5019926;28;20186;-83
2023/04/11 06:27:03;;;;;;;2.33;1.50;;;8.40;99.90;;;;;;5035350;28;20170;-83
2023/04/11 06:29:29;;;;;;;1.73;1.40;;;8.50;99.90;;;;;;5053124;28;20203;-83
2023/04/11 06:31:55;;;;;;;2.20;1.50;;;8.50;99.90;;;;;;5034866;28;20679;-84
2023/04/11 06:34:20;;;;;;;1.83;1.43;;;8.50;99.90;;;;;;5035301;28;20206;-83
2023/04/11 06:36:48;;;;;;;2.43;1.60;;;8.50;99.90;;;;;;5053108;28;20186;-82
2023/04/11 06:39:15;;;;;;;3.43;1.40;;;8.60;99.90;;;;;;5052518;28;20185;-80
2023/04/11 06:41:41;;;;;;;3.00;1.50;;;8.70;99.90;;;;;;5052434;28;20196;-81
2023/04/11 06:44:07;;;;;;;1.97;1.40;;;8.70;99.90;;;;;;5052794;28;20194;-82
2023/04/11 06:46:32;;;;;;;3.93;1.40;;;8.80;99.90;;;;;;5053607;28;20174;-82
2023/04/11 06:48:58;;;;;;;2.63;1.40;;;8.90;99.90;;;;;;5035164;28;20178;-82
2023/04/11 06:51:23;;;;;;;4.43;1.53;;;9.00;99.90;;;;;;5052530;28;20277;-82
2023/04/11 06:53:50;;;;;;;1.67;1.30;;;9.00;99.90;;;;;;5052944;28;20194;-82
2023/04/11 06:56:16;;;;;;;3.53;1.23;;;9.00;99.90;;;;;;5035058;28;20174;-82
2023/04/11 06:58:42;;;;;;;2.93;1.10;;;8.90;99.90;;;;;;5035765;28;20672;-82
2023/04/11 07:01:07;;;;;;;2.47;1.00;;;8.80;99.90;;;;;;5035696;28;20177;-82
2023/04/11 07:03:33;;;;;;;2.47;0.80;;;8.80;99.90;;;;;;5035288;28;20207;-82
2023/04/11 07:05:58;;;;;;;5.67;1.30;;;8.70;99.90;;;;;;5052326;28;20184;-83
2023/04/11 07:08:24;;;;;;;1.47;0.90;;;8.70;99.90;;;;;;5035124;28;20182;-83
2023/04/11 07:10:49;;;;;;;2.40;1.10;;;8.80;99.90;;;;;;5040799;28;20178;-82
2023/04/11 07:13:15;;;;;;;2.13;0.90;;;8.80;99.90;;;;;;5026153;28;20210;-83
2023/04/11 07:15:41;;;;;;;1.80;0.90;;;8.90;99.90;;;;;;5023929;28;20166;-82
2023/04/11 07:18:06;;;;;;;3.87;0.80;;;9.00;99.90;;;;;;5041122;28;20277;-83
2023/04/11 07:20:33;;;;;;;3.13;1.10;;;9.00;99.90;;;;;;4995629;28;20184;-82
2023/04/11 07:22:58;;;;;;;4.60;0.97;;;8.90;99.90;;;;;;5026276;28;20576;-82
2023/04/11 07:25:32;;;;;;;3.50;1.10;;;9.00;99.90;;;;;;5004901;28;20189;-83
2023/04/11 07:27:59;;;;;;;3.57;1.20;;;9.00;99.90;;;;;;5016607;28;20175;-82
2023/04/11 07:30:25;;;;;;;2.03;1.10;;;9.00;99.90;;;;;;5014619;28;20252;-82
2023/04/11 07:32:51;;;;;;;2.83;1.23;;;9.00;99.90;;;;;;5014494;28;20549;-83
2023/04/11 07:35:17;;;;;;;2.80;1.13;;;9.10;99.90;;;;;;5015818;28;20244;-82
2023/04/11 07:37:44;;;;;;;2.60;1.00;;;9.20;99.90;;;;;;5037842;28;20192;-83
2023/04/11 07:40:12;;;;;;;2.50;1.33;;;9.30;99.90;;;;;;5020385;28;20186;-82
2023/04/11 07:42:38;;;;;;;3.20;1.10;;;9.30;99.90;;;;;;5014138;28;20207;-82
2023/04/11 07:45:05;;;;;;;2.83;1.20;;;9.40;99.90;;;;;;5016254;28;20254;-83
2023/04/11 07:47:31;;;;;;;2.83;1.20;;;9.60;99.90;;;;;;5020770;28;20584;-82
2023/04/11 07:49:57;;;;;;;4.13;1.57;;;9.70;99.90;;;;;;5014536;28;20699;-83
2023/04/11 07:52:23;;;;;;;3.97;1.37;;;9.70;99.90;;;;;;5016953;28;20178;-83
2023/04/11 07:54:48;;;;;;;2.23;1.20;;;9.70;99.90;;;;;;5018337;28;20180;-82
2023/04/11 07:57:14;;;;;;;5.03;1.40;;;9.70;99.90;;;;;;5016760;28;20254;-82
2023/04/11 07:59:40;;;;;;;3.43;1.07;;;9.60;99.90;;;;;;5018552;28;20187;-82
2023/04/11 08:02:06;;;;;;;4.53;1.60;;;9.60;99.90;;;;;;5018717;28;20682;-83
2023/04/11 08:04:32;;;;;;;3.50;1.10;;;9.50;99.90;;;;;;5019566;28;20181;-83
2023/04/11 08:06:58;;;;;;;3.67;1.07;;;9.60;99.90;;;;;;5017664;28;20181;-83
2023/04/11 08:09:26;;;;;;;1.60;1.10;;;9.60;99.90;;;;;;5017866;28;20384;-83
2023/04/11 08:11:52;;;;;;;3.07;1.23;;;9.50;99.90;;;;;;5017656;28;20176;-83
2023/04/11 08:14:18;;;;;;;3.17;1.03;;;9.60;99.90;;;;;;5017956;28;20204;-84
2023/04/11 08:16:43;;;;;;;2.03;1.20;;;9.70;99.90;;;;;;5019254;28;20264;-83
2023/04/11 08:19:10;;;;;;;3.43;1.10;;;9.70;99.90;;;;;;5019509;28;20169;-83
2023/04/11 08:21:38;;;;;;;3.27;1.20;;;9.60;99.90;;;;;;5018940;28;20230;-84
2023/04/11 08:24:04;;;;;;;3.50;1.27;;;9.60;99.90;;;;;;5018235;28;20283;-83
2023/04/11 08:26:30;;;;;;;5.60;1.27;;;9.80;99.90;;;;;;5018302;28;20616;-84
2023/04/11 08:28:56;;;;;;;3.37;1.20;;;9.80;99.90;;;;;;5019857;28;20166;-83
2023/04/11 08:31:21;;;;;;;2.97;1.10;;;9.90;99.90;;;;;;5017817;28;20227;-83
2023/04/11 08:33:47;;;;;;;2.87;1.20;;;10.00;99.90;;;;;;5020168;28;20264;-84
2023/04/11 08:36:12;;;;;;;4.27;1.13;;;10.20;99.90;;;;;;5019760;28;20189;-84
2023/04/11 08:38:39;;;;;;;3.23;1.17;;;10.20;99.90;;;;;;5020223;28;20182;-84
2023/04/11 08:41:05;;;;;;;3.03;1.20;;;10.10;99.90;;;;;;5018994;28;20271;-83
2023/04/11 08:43:35;;;;;;;2.90;1.23;;;9.90;99.90;;;;;;5016650;28;20239;-83
2023/04/11 08:46:04;;;;;;;6.13;1.70;;;9.80;99.90;;;;;;5040387;28;20186;-83
2023/04/11 08:48:31;;;;;;;4.73;1.20;;;9.80;99.90;;;;;;5039160;28;20204;-82
2023/04/11 08:50:57;;;;;;;3.47;1.23;;;9.80;99.90;;;;;;5022846;28;20186;-83
2023/04/11 08:53:25;;;;;;;5.40;1.27;;;9.70;99.90;;;;;;5023889;28;20219;-83
2023/04/11 08:55:51;;;;;;;4.80;1.20;;;9.70;99.90;;;;;;5025074;28;20239;-83
2023/04/11 08:58:17;;;;;;;4.10;1.30;;;10.10;99.90;;;;;;5038012;28;20205;-82
2023/04/11 09:00:44;;;;;;;2.07;1.30;;;10.40;99.90;;;;;;5011833;28;20564;-82
2023/04/11 09:03:11;;;;;;;4.03;1.00;;;10.60;99.90;;;;;;4997922;28;20212;-82
2023/04/11 09:05:42;;;;;;;2.37;1.20;;;10.20;99.90;;;;;;5015488;28;20660;-82
2023/04/11 09:08:10;;;;;;;3.70;1.00;;;10.00;99.90;;;;;;4998693;28;20176;-82
2023/04/11 09:10:38;;;;;;;4.30;1.50;;;9.90;99.90;;;;;;4997388;28;20176;-83
2023/04/11 09:13:26;;;;;;;3.73;1.33;;;9.70;99.90;;;;;;5015292;28;20247;-83
2023/04/11 09:16:12;;;;;;;2.87;1.30;;;9.50;99.90;;;;;;4997083;28;20179;-82
2023/04/11 09:18:43;;;;;;;4.53;1.60;;;9.40;99.90;;;;;;5004475;28;20187;-83
2023/04/11 09:21:11;;;;;;;3.83;1.13;;;9.70;99.90;;;;;;5034358;28;20653;-83
2023/04/11 09:23:37;;;;;;;2.80;1.50;;;10.10;99.90;;;;;;5033531;28;20217;-83
2023/04/11 09:26:08;;;;;;;2.23;1.37;;;10.30;99.90;;;;;;5034956;28;20172;-82
2023/04/11 09:28:51;;;;;;;2.43;1.10;;;10.30;99.90;;;;;;5033734;28;20171;-83
2023/04/11 09:31:17;;;;;;;0.63;0.63;;;9.90;99.90;;;;;;5034905;28;20184;-80
2023/04/11 09:33:57;;;;;;;1.07;0.70;;;9.50;99.90;;;;;;5034056;28;20215;-82
2023/04/11 09:36:25;;;;;;;0.77;0.70;;;9.20;99.90;;;;;;5034429;28;20185;-82
2023/04/11 09:38:52;;;;;;;0.67;0.50;;;8.90;99.90;;;;;;5034150;28;20175;-83
2023/04/11 09:41:32;;;;;;;2.80;1.27;;;8.70;99.90;;;;;;5032315;28;20182;-82
2023/04/11 09:43:58;;;;;;;1.20;1.00;;;8.60;99.90;;;;;;5032649;28;20197;-83
2023/04/11 09:46:24;;;;;;;1.60;0.90;;;8.60;99.90;;;;;;5033326;28;20166;-84
2023/04/11 09:48:51;;;;;;;2.17;0.90;;;8.70;99.90;;;;;;5033688;28;20197;-84
2023/04/11 09:51:18;;;;;;;1.10;0.90;;;8.60;99.90;;;;;;5034273;28;20223;-86
2023/04/11 09:53:44;;;;;;;1.33;0.93;;;8.40;99.90;;;;;;5032862;28;20194;-85
2023/04/11 09:56:10;;;;;;;2.00;0.80;;;8.30;99.90;;;;;;5033364;28;20182;-84
2023/04/11 09:58:37;;;;;;;1.27;0.97;;;8.70;99.90;;;;;;5030023;28;20178;-85
2023/04/11 10:01:06;;;;;;;2.03;1.30;;;9.20;99.90;;;;;;5039469;28;20189;-85
2023/04/11 10:03:33;;;;;;;1.57;0.80;;;9.70;99.90;;;;;;5020252;28;20204;-85
2023/04/11 10:06:01;;;;;;;1.43;1.20;;;10.00;99.90;;;;;;5024398;28;20225;-84
2023/04/11 10:08:31;;;;;;;1.83;1.20;;;10.30;99.90;;;;;;5016525;28;20175;-84
2023/04/11 10:11:02;;;;;;;2.03;1.30;;;10.30;99.90;;;;;;5013611;28;20200;-84
2023/04/11 10:13:38;;;;;;;2.47;1.20;;;10.50;99.90;;;;;;5016076;28;20212;-83
2023/04/11 10:16:08;;;;;;;3.17;1.13;;;10.70;99.90;;;;;;5035327;28;20170;-86
2023/04/11 10:18:35;;;;;;;1.97;1.20;;;10.60;99.90;;;;;;5013397;28;20227;-84
2023/04/11 10:21:00;;;;;;;2.67;1.10;;;10.60;99.90;;;;;;5013027;28;20184;-84
2023/04/11 10:23:26;;;;;;;2.13;1.20;;;10.60;99.90;;;;;;5013907;28;20206;-83
2023/04/11 10:25:54;;;;;;;1.33;1.17;;;10.60;99.90;;;;;;5019093;28;20185;-83
2023/04/11 10:28:37;;;;;;;2.00;1.20;;;10.50;99.90;;;;;;5033120;28;20176;-84
2023/04/11 10:31:06;;;;;;;2.20;1.40;;;10.00;99.90;;;;;;5032247;28;20557;-83
2023/04/11 10:33:32;;;;;;;1.77;1.40;;;9.70;99.90;;;;;;5065741;22;20221;-81
2023/04/11 10:36:09;;;;;;;2.90;1.80;;;9.40;99.90;;;;;;5057750;28;20574;-81
2023/04/11 10:38:47;;;;;;;1.67;1.30;;;9.20;99.90;;;;;;5036184;28;20621;-80
2023/04/11 10:41:21;;;;;;;4.33;1.37;;;9.20;99.90;;;;;;5038321;28;20167;-81
2023/04/11 10:43:48;;;;;;;3.90;1.50;;;9.20;99.90;;;;;;5048411;28;20204;-80
2023/04/11 10:46:24;;;;;;;2.90;1.60;;;8.80;99.90;;;;;;5020009;28;20173;-81
2023/04/11 10:49:01;;;;;;;2.87;1.60;;;8.60;99.90;;;;;;5037070;28;20175;-80
2023/04/11 10:51:28;;;;;;;3.43;1.50;;;8.40;99.90;;;;;;5015674;28;20166;-80
2023/04/11 10:53:58;;;;;;;3.67;2.33;;;8.40;99.90;;;;;;5016083;28;20191;-80
2023/04/11 10:56:41;;;;;;;2.63;1.60;;;8.40;99.90;;;;;;5015737;28;20186;-80
2023/04/11 10:59:30;;;;;;;4.67;1.90;;;8.40;99.90;;;;;;5033204;28;20170;-79
2023/04/11 11:02:00;;;;;;;3.53;1.70;;;8.30;99.90;;;;;;5015046;28;20205;-80
2023/04/11 11:04:31;;;;;;;2.77;1.37;;;8.30;99.90;;;;;;5015413;28;20191;-80
2023/04/11 11:06:58;;;;;;;4.07;2.00;;;8.10;99.90;;;;;;5033040;28;20650;-80
2023/04/11 11:09:24;;;;;;;2.33;1.47;;;8.00;99.90;;;;;;5015443;28;20196;-80
2023/04/11 11:12:11;;;;;;;3.33;1.80;;;8.20;99.90;;;;;;5033007;28;20181;-80
2023/04/11 11:14:40;;;;;;;4.00;1.90;;;9.10;99.90;;;;;;5032998;28;20208;-80
2023/04/11 11:17:07;;;;;;;3.73;1.70;;;9.70;99.90;;;;;;5033556;28;20241;-81
2023/04/11 11:19:36;;;;;;;3.80;1.90;;;10.10;99.90;;;;;;5033281;28;20189;-80
2023/04/11 11:22:03;;;;;;;4.83;2.30;;;10.60;99.90;;;;;;5033174;28;20230;-79
2023/04/11 11:24:29;;;;;;;4.33;1.80;;;10.70;99.90;;;;;;5034241;28;20273;-81
2023/04/11 11:26:56;;;;;;;4.27;2.43;;;10.50;99.90;;;;;;5019393;28;20219;-81
2023/04/11 11:29:34;;;;;;;5.90;2.10;;;10.30;99.90;;;;;;5019367;28;20211;-81
2023/04/11 11:32:03;;;;;;;4.80;2.07;;;10.30;99.90;;;;;;5018812;28;20184;-81
2023/04/11 11:34:33;;;;;;;3.43;1.80;;;10.70;99.90;;;;;;5019208;28;20672;-81
2023/04/11 11:37:00;;;;;;;3.93;1.97;;;10.90;99.90;;;;;;5019554;28;20209;-80
2023/04/11 11:39:29;;;;;;;3.27;1.97;;;11.00;99.90;;;;;;5019306;28;20192;-81
2023/04/11 11:41:55;;;;;;;3.40;2.10;;;11.20;99.90;;;;;;5018803;28;20672;-81
2023/04/11 11:44:25;;;;;;;5.20;1.90;;;11.50;99.90;;;;;;5019355;28;20209;-81
2023/04/11 11:47:00;;;;;;;5.40;1.80;;;11.80;99.90;;;;;;5036739;28;20182;-81
2023/04/11 11:49:26;;;;;;;4.63;2.03;;;12.00;99.90;;;;;;5036711;28;20650;-81
2023/04/11 11:51:52;;;;;;;4.03;2.00;;;12.20;99.90;;;;;;5018742;28;20216;-81
2023/04/11 11:54:17;;;;;;;2.67;1.73;;;12.40;99.90;;;;;;5019203;28;20835;-81
2023/04/11 11:56:53;;;;;;;3.67;1.40;;;12.20;99.90;;;;;;5036744;28;20166;-81
2023/04/11 11:59:26;;;;;;;5.03;1.67;;;12.40;98.80;;;;;;5019852;28;20166;-82
2023/04/11 12:01:52;;;;;;;2.20;1.40;;;12.70;97.20;;;;;;5035862;28;20194;-82
2023/04/11 12:04:19;;;;;;;2.47;1.10;;;12.50;86.00;;;;;;5035541;28;20202;-80
2023/04/11 12:06:44;;;;;;;3.67;1.50;;;11.90;84.60;;;;;;5018935;28;20201;-81
2023/04/11 12:09:11;;;;;;;4.57;1.80;;;11.80;96.80;;;;;;5036399;28;20181;-81
2023/04/11 12:11:37;;;;;;;4.53;1.50;;;11.90;93.60;;;;;;5017545;28;20178;-81
2023/04/11 12:14:03;;;;;;;2.90;1.47;;;12.20;95.90;;;;;;5038123;28;20199;-81
2023/04/11 12:16:28;;;;;;;2.40;1.43;;;12.30;77.60;;;;;;5017132;28;20179;-82
2023/04/11 12:18:58;;;;;;;2.07;1.27;;;12.60;75.90;;;;;;5016853;28;20194;-81
2023/04/11 12:21:24;;;;;;;3.17;1.10;;;13.20;79.50;;;;;;5024182;28;20194;-82
2023/04/11 12:23:50;;;;;;;2.70;1.30;;;13.70;70.30;;;;;;5024515;28;20198;-81
2023/04/11 12:26:16;;;;;;;1.37;1.00;;;14.00;57.40;;;;;;4998885;28;20171;-81
2023/04/11 12:28:42;;;;;;;3.27;1.10;;;13.90;26.20;;;;;;5016937;28;20179;-81
2023/04/11 12:31:07;;;;;;;2.33;1.20;;;13.90;33.50;;;;;;4998615;28;20552;-81
2023/04/11 12:33:33;;;;;;;2.00;1.07;;;13.90;27.20;;;;;;5015942;28;20273;-82
2023/04/11 12:35:59;;;;;;;3.37;1.20;;;14.00;23.10;;;;;;4998482;28;20178;-82
2023/04/11 12:38:24;;;;;;;1.47;1.03;;;14.20;26.10;;;;;;5020551;28;20171;-82
2023/04/11 12:40:50;;;;;;;3.77;1.27;;;14.20;20.10;;;;;;5017986;28;20197;-82
2023/04/11 12:43:15;;;;;;;2.27;1.20;;;14.10;23.20;;;;;;5017389;28;20206;-79
2023/04/11 12:45:41;;;;;;;2.50;1.10;;;14.30;23.90;;;;;;5036231;28;20178;-81
2023/04/11 12:48:07;;;;;;;3.63;0.97;;;14.00;18.50;;;;;;5018703;28;20205;-80
2023/04/11 12:50:32;;;;;;;2.33;1.20;;;13.50;22.50;;;;;;5017733;28;20269;-81
2023/04/11 12:52:58;;;;;;;5.03;1.20;;;13.60;23.30;;;;;;5016926;28;20216;-82